Time;durP1;ratioP1;P1;durP2;ratioP2;P2;SDS_P1;SDS_P2;PMS_P1;PMS_P2;Temp;Humidity;BMP_temperature;BMP_pressure;BME280_temperature;BME280_humidity;BME280_pressure;Samples;Min_cycle;Max_cycle;Signal;HPM_P1;HPM_P2
2021/08/02 00:01:23;;;;;;;2.73;1.97;;;;;;;23.74;58.44;97709.47;5008497;28;20645;-65
2021/08/02 00:03:53;;;;;;;2.93;1.97;;;;;;;23.56;61.26;97706.72;5022368;28;20222;-67
2021/08/02 00:06:24;;;;;;;4.13;1.50;;;;;;;23.65;58.62;97711.22;5012299;28;20199;-67
2021/08/02 00:08:59;;;;;;;2.33;1.80;;;;;;;23.91;58.51;97709.03;5018072;28;20202;-67
2021/08/02 00:11:35;;;;;;;2.40;1.90;;;;;;;23.83;59.23;97707.72;5015371;28;20214;-68
2021/08/02 00:14:05;;;;;;;2.23;1.90;;;;;;;24.22;56.54;97718.41;5009273;28;20562;-68
2021/08/02 00:16:33;;;;;;;2.27;1.57;;;;;;;24.33;55.57;97719.88;5012351;28;20659;-67
2021/08/02 00:19:00;;;;;;;6.10;2.10;;;;;;;24.36;55.85;97722.81;5020911;28;20233;-68
2021/08/02 00:21:29;;;;;;;2.93;1.73;;;;;;;24.43;55.39;97719.72;5012099;28;20234;-67
2021/08/02 00:23:57;;;;;;;3.00;1.90;;;;;;;24.87;53.74;97726.38;5012332;28;20588;-68
2021/08/02 00:26:25;;;;;;;1.80;1.60;;;;;;;25.24;53.59;97720.00;5015292;28;20206;-68
2021/08/02 00:28:52;;;;;;;4.77;1.93;;;;;;;24.42;57.56;97720.84;5016315;28;20207;-67
2021/08/02 00:31:20;;;;;;;2.50;1.77;;;;;;;24.22;56.65;97729.31;5015944;28;20218;-67
2021/08/02 00:33:47;;;;;;;2.87;1.80;;;;;;;24.73;54.69;97727.47;5011464;28;20223;-67
2021/08/02 00:36:19;;;;;;;3.27;2.00;;;;;;;23.70;58.70;97727.50;5011633;28;20656;-68
2021/08/02 00:38:52;;;;;;;1.80;1.50;;;;;;;24.58;54.60;97735.84;5015876;28;20217;-67
2021/08/02 00:41:58;;;;;;;2.80;1.90;;;;;;;24.49;55.08;97738.44;5011900;28;20218;-67
2021/08/02 00:45:07;;;;;;;2.23;1.90;;;;;;;24.14;57.16;97735.41;4994833;28;20227;-68
2021/08/02 00:47:37;;;;;;;4.50;2.00;;;;;;;23.77;58.38;97741.59;5011268;28;20207;-67
2021/08/02 00:50:07;;;;;;;2.80;1.80;;;;;;;23.57;59.30;97743.75;5010981;28;20203;-66
2021/08/02 00:52:35;;;;;;;3.63;1.73;;;;;;;24.30;56.56;97751.28;5012001;28;20230;-67
2021/08/02 00:55:06;;;;;;;2.90;2.00;;;;;;;23.86;59.26;97739.03;5015112;28;20199;-67
2021/08/02 00:57:36;;;;;;;3.63;1.80;;;;;;;23.95;57.91;97742.75;5017016;28;20210;-68
2021/08/02 01:00:07;;;;;;;4.17;1.70;;;;;;;24.06;57.30;97747.00;5009448;28;20216;-68
2021/08/02 01:02:38;;;;;;;2.50;1.50;;;;;;;23.69;60.60;97738.69;5010325;28;20226;-68
2021/08/02 01:05:09;;;;;;;4.20;1.70;;;;;;;24.02;58.69;97744.03;5014153;28;20200;-67
2021/08/02 01:07:40;;;;;;;3.10;2.10;;;;;;;24.24;58.27;97747.00;5017586;28;20254;-68
2021/08/02 01:10:11;;;;;;;3.37;2.00;;;;;;;24.62;56.30;97739.66;5016189;28;20230;-68
2021/08/02 01:12:38;;;;;;;2.20;1.90;;;;;;;24.62;56.90;97742.38;5014140;28;20230;-67
2021/08/02 01:15:06;;;;;;;5.40;2.10;;;;;;;24.72;55.98;97745.75;5006117;28;20207;-68
2021/08/02 01:17:35;;;;;;;2.33;1.80;;;;;;;24.10;59.69;97739.81;5013144;28;20598;-67
2021/08/02 01:20:04;;;;;;;2.10;1.67;;;;;;;24.48;58.00;97738.75;5014185;28;20219;-68
2021/08/02 01:22:34;;;;;;;5.43;2.00;;;;;;;24.54;57.16;97741.09;5011260;28;20249;-67
2021/08/02 01:25:56;;;;;;;3.03;1.70;;;;;;;24.04;59.95;97741.81;5023035;28;20206;-67
2021/08/02 01:29:01;;;;;;;3.50;2.17;;;;;;;23.98;60.80;97734.00;5011713;28;20218;-68
2021/08/02 01:31:28;;;;;;;2.23;1.80;;;;;;;24.39;59.31;97730.41;5021317;28;20657;-68
2021/08/02 01:33:55;;;;;;;2.70;1.80;;;;;;;23.89;61.57;97725.66;5010998;28;20249;-67
2021/08/02 01:36:23;;;;;;;2.10;1.90;;;;;;;23.95;61.97;97727.22;5009707;28;20216;-67
2021/08/02 01:38:53;;;;;;;4.97;2.00;;;;;;;23.86;62.94;97722.69;5015008;28;20203;-67
2021/08/02 01:41:21;;;;;;;8.60;2.27;;;;;;;23.47;63.23;97732.97;5013249;28;20582;-67
2021/08/02 01:43:48;;;;;;;3.73;1.80;;;;;;;24.19;60.47;97724.44;5009373;28;20227;-67
2021/08/02 01:46:22;;;;;;;4.63;2.00;;;;;;;23.45;64.02;97727.81;5012338;28;20656;-67
2021/08/02 01:48:57;;;;;;;2.10;1.53;;;;;;;23.75;62.44;97727.44;5017846;28;20669;-67
2021/08/02 01:51:27;;;;;;;3.73;2.20;;;;;;;24.32;59.46;97732.69;5011397;28;20209;-67
2021/08/02 01:54:03;;;;;;;3.13;1.97;;;;;;;24.14;60.65;97733.50;5009494;28;20237;-68
2021/08/02 01:56:35;;;;;;;1.93;1.67;;;;;;;24.09;61.49;97732.75;5016236;28;20203;-65
2021/08/02 01:59:05;;;;;;;3.60;2.00;;;;;;;24.26;60.17;97739.31;5017287;28;20203;-67
2021/08/02 02:01:35;;;;;;;4.17;1.63;;;;;;;24.09;59.80;97741.75;5011879;28;20206;-67
2021/08/02 02:04:04;;;;;;;2.37;1.50;;;;;;;24.09;60.18;97740.94;5012669;28;20231;-67
2021/08/02 02:06:34;;;;;;;1.80;1.57;;;;;;;23.94;60.28;97736.50;5010328;28;20218;-67
2021/08/02 02:09:06;;;;;;;3.37;1.87;;;;;;;23.73;61.64;97737.03;5017085;28;20209;-68
2021/08/02 02:11:34;;;;;;;1.97;1.57;;;;;;;24.29;59.99;97738.75;5014665;28;20206;-67
2021/08/02 02:14:03;;;;;;;5.50;2.07;;;;;;;24.48;58.53;97744.19;5014171;28;20226;-68
2021/08/02 02:16:32;;;;;;;4.50;2.33;;;;;;;24.43;58.38;97741.53;5010806;28;20207;-66
2021/08/02 02:19:02;;;;;;;2.13;1.57;;;;;;;24.70;57.25;97747.97;5013235;28;20203;-68
2021/08/02 02:21:31;;;;;;;1.83;1.70;;;;;;;24.81;55.97;97743.97;5009417;28;20226;-67
2021/08/02 02:23:59;;;;;;;2.47;1.50;;;;;;;24.58;56.57;97747.59;5011894;28;20231;-67
2021/08/02 02:26:31;;;;;;;2.17;1.60;;;;;;;24.25;58.83;97747.81;5009993;28;20214;-67
2021/08/02 02:28:59;;;;;;;3.77;1.60;;;;;;;24.01;60.73;97749.78;5016175;28;20219;-66
2021/08/02 02:31:26;;;;;;;4.27;1.60;;;;;;;24.54;58.16;97752.03;5007727;28;20210;-67
2021/08/02 02:33:56;;;;;;;3.20;1.80;;;;;;;24.34;58.12;97756.94;5015310;28;20233;-68
2021/08/02 02:36:24;;;;;;;3.93;2.07;;;;;;;24.42;57.57;97753.56;5010051;28;20210;-67
2021/08/02 02:38:53;;;;;;;5.17;1.70;;;;;;;23.93;60.81;97745.81;5017897;28;20691;-67
2021/08/02 02:41:21;;;;;;;2.57;1.60;;;;;;;23.98;59.53;97750.34;5011578;28;20218;-68
2021/08/02 02:43:50;;;;;;;5.20;2.10;;;;;;;23.80;60.74;97751.09;5021235;28;20234;-67
2021/08/02 02:46:18;;;;;;;2.50;1.63;;;;;;;23.69;63.41;97752.31;5009441;28;20675;-67
2021/08/02 02:48:46;;;;;;;6.90;1.60;;;;;;;24.16;60.44;97755.00;5021651;28;20202;-67
2021/08/02 02:51:14;;;;;;;2.53;2.00;;;;;;;23.68;62.95;97753.44;5006459;28;20766;-67
2021/08/02 02:53:42;;;;;;;3.00;1.87;;;;;;;23.23;65.88;97752.03;5022651;28;20243;-67
2021/08/02 02:56:10;;;;;;;3.40;2.07;;;;;;;23.36;65.67;97754.03;5008914;28;20210;-66
2021/08/02 02:58:37;;;;;;;3.67;1.83;;;;;;;23.28;65.20;97762.88;5013237;28;20295;-66
2021/08/02 03:01:07;;;;;;;4.50;1.90;;;;;;;23.25;65.31;97759.91;5008583;28;20229;-67
2021/08/02 03:03:36;;;;;;;3.37;2.00;;;;;;;23.18;65.57;97753.97;5006079;28;20233;-67
2021/08/02 03:06:03;;;;;;;3.57;2.20;;;;;;;23.25;64.61;97751.75;5009926;28;20217;-67
2021/08/02 03:08:31;;;;;;;3.50;2.00;;;;;;;23.32;64.36;97754.91;5016062;28;20203;-67
2021/08/02 03:10:58;;;;;;;3.80;2.20;;;;;;;22.26;70.65;97751.38;5009506;28;20293;-67
2021/08/02 03:13:26;;;;;;;3.67;2.27;;;;;;;23.02;66.55;97758.72;5018572;28;20233;-67
2021/08/02 03:15:54;;;;;;;6.43;2.23;;;;;;;22.67;67.34;97755.47;5013203;28;20230;-67
2021/08/02 03:18:22;;;;;;;2.90;1.83;;;;;;;22.80;66.85;97761.06;5015049;28;20561;-67
2021/08/02 03:20:50;;;;;;;4.10;1.80;;;;;;;22.87;66.03;97763.47;5012159;28;20234;-68
2021/08/02 03:23:21;;;;;;;2.50;1.60;;;;;;;22.90;66.14;97760.19;5010796;28;20984;-65
2021/08/02 03:25:55;;;;;;;5.33;1.93;;;;;;;23.45;63.34;97755.03;5014463;28;20207;-67
2021/08/02 03:28:26;;;;;;;4.23;2.10;;;;;;;23.06;64.72;97765.19;5010274;28;20207;-66
2021/08/02 03:30:57;;;;;;;4.17;2.10;;;;;;;22.98;65.42;97754.13;5014314;28;20291;-67
2021/08/02 03:33:29;;;;;;;2.83;2.53;;;;;;;22.78;68.40;97763.28;5010013;28;20231;-66
2021/08/02 03:35:58;;;;;;;4.57;2.20;;;;;;;23.72;62.81;97777.06;5007867;28;20207;-66
2021/08/02 03:38:25;;;;;;;2.60;1.73;;;;;;;23.83;62.01;97770.44;5018490;28;20207;-66
2021/08/02 03:40:53;;;;;;;3.83;2.00;;;;;;;23.63;63.44;97770.66;5013576;28;20237;-67
2021/08/02 03:43:20;;;;;;;3.77;1.90;;;;;;;23.52;64.13;97774.56;5015704;28;20231;-66
2021/08/02 03:45:48;;;;;;;7.50;2.10;;;;;;;23.73;63.41;97773.28;5018619;28;20214;-66
2021/08/02 03:48:18;;;;;;;3.50;2.00;;;;;;;23.85;61.98;97779.09;5018916;28;20203;-67
2021/08/02 03:50:47;;;;;;;3.20;1.67;;;;;;;23.73;62.50;97784.16;5015607;28;20203;-67
2021/08/02 03:53:15;;;;;;;4.00;2.00;;;;;;;23.92;61.53;97782.31;5020836;28;20230;-66
2021/08/02 03:55:44;;;;;;;4.37;2.20;;;;;;;23.03;67.16;97771.25;5018774;28;20210;-67
2021/08/02 03:58:11;;;;;;;2.90;2.17;;;;;;;23.42;63.92;97779.34;5018298;28;20210;-67
2021/08/02 04:00:38;;;;;;;3.57;1.70;;;;;;;23.83;63.06;97789.50;5012646;28;20229;-67
2021/08/02 04:03:07;;;;;;;3.90;1.73;;;;;;;23.92;62.56;97792.44;5016638;28;20610;-67
2021/08/02 04:05:34;;;;;;;4.03;1.90;;;;;;;22.95;66.90;97790.88;5009951;28;20203;-68
2021/08/02 04:08:03;;;;;;;4.50;2.20;;;;;;;23.83;64.26;97802.31;5017193;28;20690;-67
2021/08/02 04:10:30;;;;;;;3.40;2.07;;;;;;;23.88;63.11;97796.78;5012432;28;20233;-68
2021/08/02 04:12:58;;;;;;;2.53;1.87;;;;;;;23.96;61.98;97807.91;5018327;28;20226;-67
2021/08/02 04:15:26;;;;;;;4.60;2.37;;;;;;;23.83;63.05;97810.47;5013087;28;20581;-67
2021/08/02 04:17:53;;;;;;;3.63;2.00;;;;;;;23.80;64.51;97806.44;5017792;28;20803;-68
2021/08/02 04:20:20;;;;;;;2.27;1.87;;;;;;;24.05;62.22;97810.78;5012439;28;20234;-68
2021/08/02 04:22:48;;;;;;;3.77;2.23;;;;;;;24.10;62.32;97806.09;5016170;28;20285;-67
2021/08/02 04:25:17;;;;;;;4.17;2.10;;;;;;;24.16;62.76;97809.56;5015937;28;20207;-67
2021/08/02 04:27:44;;;;;;;5.00;2.00;;;;;;;24.01;62.85;97810.56;5012025;28;20215;-68
2021/08/02 04:30:13;;;;;;;2.80;2.03;;;;;;;24.23;61.51;97818.22;5014200;28;20199;-67
2021/08/02 04:32:44;;;;;;;2.70;1.93;;;;;;;23.95;64.10;97816.34;5019613;28;20229;-67
2021/08/02 04:35:11;;;;;;;2.20;1.80;;;;;;;24.40;61.41;97824.78;5009733;28;20211;-68
2021/08/02 04:37:39;;;;;;;4.17;1.90;;;;;;;24.36;60.31;97829.19;5015559;28;20209;-68
2021/08/02 04:40:07;;;;;;;3.17;1.77;;;;;;;24.13;61.96;97826.50;5017867;28;20213;-67
2021/08/02 04:42:38;;;;;;;5.57;2.17;;;;;;;24.11;60.39;97831.47;5014408;28;20222;-68
2021/08/02 04:45:06;;;;;;;3.30;1.90;;;;;;;24.39;58.13;97836.00;5007902;28;20229;-67
2021/08/02 04:47:34;;;;;;;3.40;1.90;;;;;;;23.92;61.77;97831.38;5014218;28;20207;-68
2021/08/02 04:50:01;;;;;;;4.13;1.97;;;;;;;24.38;60.53;97832.44;5015511;28;20220;-67
2021/08/02 04:52:28;;;;;;;3.40;1.70;;;;;;;24.55;59.33;97837.41;5011182;28;20222;-67
2021/08/02 04:54:56;;;;;;;4.40;1.70;;;;;;;24.97;57.06;97842.81;5017539;28;20207;-68
2021/08/02 04:57:23;;;;;;;4.73;1.90;;;;;;;24.47;59.07;97838.06;5011608;28;20570;-68
2021/08/02 04:59:52;;;;;;;2.50;1.93;;;;;;;25.01;57.79;97844.66;5014287;28;20211;-68
2021/08/02 05:02:19;;;;;;;5.53;2.00;;;;;;;24.81;57.22;97844.16;5022162;28;20243;-68
2021/08/02 05:04:47;;;;;;;2.87;1.70;;;;;;;24.62;58.69;97835.97;5010020;28;20226;-67
2021/08/02 05:07:14;;;;;;;3.47;1.73;;;;;;;24.96;57.21;97842.00;5012148;28;20205;-68
2021/08/02 05:09:41;;;;;;;2.00;1.80;;;;;;;24.89;57.64;97849.75;5023908;28;20208;-67
2021/08/02 05:12:09;;;;;;;4.00;1.77;;;;;;;24.88;57.46;97850.06;5011008;28;20201;-67
2021/08/02 05:14:36;;;;;;;3.27;2.00;;;;;;;25.10;55.17;97853.00;5024942;28;20205;-68
2021/08/02 05:17:07;;;;;;;4.20;2.40;;;;;;;25.18;54.09;97849.59;5012349;28;20226;-67
2021/08/02 05:19:34;;;;;;;3.97;1.60;;;;;;;25.04;53.88;97851.44;5010308;28;20230;-67
2021/08/02 05:22:01;;;;;;;5.90;2.57;;;;;;;25.08;54.07;97860.69;5012172;28;20223;-67
2021/08/02 05:24:29;;;;;;;6.13;2.07;;;;;;;24.54;57.05;97855.72;5021590;28;20224;-65
2021/08/02 05:26:56;;;;;;;3.23;1.90;;;;;;;24.40;57.62;97845.78;5009060;28;20203;-67
2021/08/02 05:29:23;;;;;;;2.30;1.50;;;;;;;23.73;61.23;97846.03;5012245;28;20215;-67
2021/08/02 05:31:51;;;;;;;2.73;1.63;;;;;;;23.70;61.07;97858.31;5014858;28;20484;-68
2021/08/02 05:34:19;;;;;;;3.37;1.67;;;;;;;24.27;60.11;97852.78;5009070;28;20599;-68
2021/08/02 05:36:47;;;;;;;4.03;1.50;;;;;;;24.39;58.45;97849.63;5011816;28;20219;-67
2021/08/02 05:39:14;;;;;;;3.07;1.57;;;;;;;24.61;56.68;97856.19;5015934;28;20205;-68
2021/08/02 05:41:41;;;;;;;3.17;1.57;;;;;;;24.92;54.61;97864.72;5012451;28;20259;-69
2021/08/02 05:44:08;;;;;;;1.77;1.47;;;;;;;24.89;55.21;97860.66;5025830;28;20629;-67
2021/08/02 05:46:36;;;;;;;3.03;1.37;;;;;;;24.93;54.98;97856.25;5009403;28;20216;-68
2021/08/02 05:49:03;;;;;;;2.10;1.50;;;;;;;24.96;54.42;97863.03;5011084;28;20567;-68
2021/08/02 05:51:32;;;;;;;3.67;1.67;;;;;;;25.28;52.73;97860.38;5012817;28;20224;-69
2021/08/02 05:53:59;;;;;;;3.37;1.73;;;;;;;25.33;52.32;97863.84;5027243;28;20236;-74
2021/08/02 05:56:27;;;;;;;3.93;1.73;;;;;;;25.34;51.97;97873.66;5014409;28;20208;-68
2021/08/02 05:58:54;;;;;;;4.30;1.83;;;;;;;24.80;54.71;97869.81;5016539;28;20573;-69
2021/08/02 06:01:21;;;;;;;2.67;2.10;;;;;;;24.46;57.31;97860.97;5026789;28;20727;-68
2021/08/02 06:03:49;;;;;;;3.03;1.80;;;;;;;25.34;53.11;97876.38;5009534;28;20259;-69
2021/08/02 06:06:17;;;;;;;3.47;1.70;;;;;;;24.47;55.74;97879.81;5014561;28;20207;-68
2021/08/02 06:08:45;;;;;;;3.43;1.63;;;;;;;25.14;53.56;97875.88;5012472;28;20220;-67
2021/08/02 06:11:13;;;;;;;4.53;1.70;;;;;;;25.65;51.63;97874.75;5001195;28;20196;-68
2021/08/02 06:13:41;;;;;;;2.53;1.40;;;;;;;25.69;50.02;97877.72;5009461;28;20220;-68
2021/08/02 06:16:08;;;;;;;2.73;1.67;;;;;;;25.57;50.26;97882.81;5005525;28;20202;-66
2021/08/02 06:18:35;;;;;;;4.17;1.87;;;;;;;25.42;51.04;97889.38;5023079;28;20200;-66
2021/08/02 06:21:02;;;;;;;5.17;1.83;;;;;;;26.22;48.38;97892.56;5013693;28;20697;-66
2021/08/02 06:23:30;;;;;;;2.97;1.80;;;;;;;26.46;47.25;97893.97;5013859;28;20600;-66
2021/08/02 06:25:59;;;;;;;2.00;1.37;;;;;;;24.38;55.32;97894.41;5007562;28;20208;-69
2021/08/02 06:28:26;;;;;;;2.33;1.60;;;;;;;24.24;56.05;97888.84;5011423;28;20578;-66
2021/08/02 06:30:53;;;;;;;5.03;1.53;;;;;;;24.60;55.28;97886.50;5025547;28;20199;-66
2021/08/02 06:33:23;;;;;;;7.43;1.80;;;;;;;24.81;53.98;97893.28;5022072;28;20741;-67
2021/08/02 06:35:50;;;;;;;7.07;1.53;;;;;;;25.16;54.18;97885.41;5029971;28;20670;-66
2021/08/02 06:38:18;;;;;;;2.57;1.70;;;;;;;24.20;57.01;97882.34;5029265;28;20215;-66
2021/08/02 06:40:45;;;;;;;3.03;1.40;;;;;;;24.66;55.19;97885.31;5010909;28;20757;-71
2021/08/02 06:43:14;;;;;;;2.80;1.37;;;;;;;24.95;54.61;97886.81;5007433;28;20229;-74
2021/08/02 06:45:41;;;;;;;7.30;1.70;;;;;;;25.26;52.11;97900.84;5027532;28;20236;-73
2021/08/02 06:48:10;;;;;;;1.73;1.40;;;;;;;25.16;53.16;97890.03;5020098;28;20728;-70
2021/08/02 06:50:37;;;;;;;3.60;1.40;;;;;;;25.70;51.64;97884.78;5017250;28;20300;-70
2021/08/02 06:53:04;;;;;;;5.07;1.47;;;;;;;26.42;48.73;97901.22;5018244;28;20228;-70
2021/08/02 06:55:31;;;;;;;2.97;1.50;;;;;;;26.94;46.93;97897.09;5017394;28;20212;-71
2021/08/02 06:57:59;;;;;;;3.10;1.50;;;;;;;26.16;49.05;97894.63;5011689;28;20202;-71
2021/08/02 07:00:27;;;;;;;3.80;1.43;;;;;;;26.34;47.99;97901.91;5009081;28;20210;-70
2021/08/02 07:02:57;;;;;;;2.73;1.70;;;;;;;25.23;51.68;97902.22;5021316;28;20225;-70
2021/08/02 07:05:27;;;;;;;3.77;1.50;;;;;;;25.65;51.99;97895.81;5010731;28;20648;-71
2021/08/02 07:07:55;;;;;;;6.07;1.20;;;;;;;25.72;49.81;97904.44;5017676;28;20190;-72
2021/08/02 07:10:28;;;;;;;2.03;1.60;;;;;;;26.13;48.08;97902.59;5028591;28;20203;-71
2021/08/02 07:12:56;;;;;;;2.80;1.37;;;;;;;26.01;48.77;97897.66;5022601;28;20305;-72
2021/08/02 07:15:23;;;;;;;3.23;1.40;;;;;;;27.48;43.60;97907.88;5009103;28;20215;-73
2021/08/02 07:17:52;;;;;;;2.67;1.40;;;;;;;27.74;42.25;97903.38;5012020;28;20206;-74
2021/08/02 07:20:19;;;;;;;4.13;1.23;;;;;;;26.67;44.24;97910.84;5010603;28;20207;-73
2021/08/02 07:22:51;;;;;;;7.03;1.27;;;;;;;26.78;43.87;97917.72;5020295;28;20784;-73
2021/08/02 07:25:21;;;;;;;3.80;1.57;;;;;;;26.79;43.98;97906.47;5014255;28;20581;-72
2021/08/02 07:27:49;;;;;;;2.73;1.13;;;;;;;26.74;45.26;97905.75;5029008;28;20258;-73
2021/08/02 07:30:17;;;;;;;2.87;1.40;;;;;;;27.50;43.36;97909.19;5017155;28;20203;-73
2021/08/02 07:32:48;;;;;;;3.23;1.30;;;;;;;27.90;41.48;97918.34;5017030;28;20238;-73
2021/08/02 07:35:17;;;;;;;1.97;1.30;;;;;;;28.03;40.59;97917.47;5012835;28;20262;-73
2021/08/02 07:37:47;;;;;;;1.63;1.27;;;;;;;27.58;42.35;97915.88;5025469;28;20289;-73
2021/08/02 07:40:17;;;;;;;3.63;1.30;;;;;;;28.79;38.79;97922.47;5023741;28;20264;-78
2021/08/02 07:42:47;;;;;;;2.60;1.23;;;;;;;28.88;38.88;97924.09;5020117;28;20231;-72
2021/08/02 07:45:15;;;;;;;1.33;1.10;;;;;;;28.31;39.19;97924.38;5022436;28;20209;-75
2021/08/02 07:47:43;;;;;;;1.97;1.10;;;;;;;28.99;37.74;97924.63;5013507;28;20204;-73
2021/08/02 07:50:12;;;;;;;4.27;1.40;;;;;;;28.85;37.93;97923.94;5017017;28;20210;-75
2021/08/02 07:52:41;;;;;;;4.90;1.30;;;;;;;28.35;38.85;97920.69;5022608;28;20320;-76
2021/08/02 07:55:09;;;;;;;3.83;1.33;;;;;;;27.94;40.06;97920.16;5011311;28;20254;-71
2021/08/02 07:57:37;;;;;;;3.30;1.47;;;;;;;26.73;43.95;97913.16;5020352;28;20210;-73
2021/08/02 08:00:05;;;;;;;1.50;1.10;;;;;;;28.26;38.60;97928.06;5022336;28;20569;-71
2021/08/02 08:02:32;;;;;;;4.13;1.13;;;;;;;28.92;37.35;97935.25;5027074;28;20236;-70
2021/08/02 08:04:59;;;;;;;4.00;1.23;;;;;;;27.82;40.38;97930.09;5015937;28;20219;-70
2021/08/02 08:07:27;;;;;;;2.57;1.10;;;;;;;28.77;37.32;97933.78;5026027;28;20203;-72
2021/08/02 08:09:55;;;;;;;2.53;1.00;;;;;;;28.56;38.03;97931.91;5023823;28;20203;-70
2021/08/02 08:12:23;;;;;;;2.33;1.00;;;;;;;29.69;35.86;97934.22;5024072;28;20560;-70
2021/08/02 08:14:50;;;;;;;1.10;1.00;;;;;;;30.15;34.87;97944.53;5029459;28;20207;-71
2021/08/02 08:17:17;;;;;;;1.67;1.10;;;;;;;29.49;35.10;97939.56;5028205;28;20391;-74
2021/08/02 08:19:45;;;;;;;1.87;0.90;;;;;;;27.28;39.95;97927.56;5013932;28;20212;-70
2021/08/02 08:22:12;;;;;;;2.53;1.67;;;;;;;28.47;38.42;97922.88;5022175;28;20712;-69
2021/08/02 08:24:39;;;;;;;2.23;1.10;;;;;;;28.55;38.83;97920.16;5016252;28;20692;-74
2021/08/02 08:27:08;;;;;;;2.93;1.10;;;;;;;29.48;34.85;97926.91;5021841;28;20208;-70
2021/08/02 08:29:35;;;;;;;1.30;0.83;;;;;;;29.32;34.16;97940.34;5026691;28;20221;-70
2021/08/02 08:32:02;;;;;;;4.30;1.10;;;;;;;29.51;35.07;97932.59;5021404;28;20205;-70
2021/08/02 08:34:30;;;;;;;3.33;1.10;;;;;;;27.87;37.48;97929.97;5022342;28;20221;-70
2021/08/02 08:36:57;;;;;;;5.13;1.10;;;;;;;27.44;38.25;97924.16;5014414;28;20207;-70
2021/08/02 08:39:24;;;;;;;1.60;0.97;;;;;;;30.11;34.62;97929.78;5023650;28;20214;-72
2021/08/02 08:41:52;;;;;;;2.40;1.00;;;;;;;30.04;33.65;97933.00;5019927;28;20226;-71
2021/08/02 08:44:21;;;;;;;1.27;1.10;;;;;;;28.79;35.84;97925.22;5028216;28;20687;-71
2021/08/02 08:46:49;;;;;;;2.13;1.27;;;;;;;29.23;34.61;97931.28;5025076;28;20268;-71
2021/08/02 08:49:16;;;;;;;3.10;1.40;;;;;;;28.57;36.52;97917.88;5015645;28;20212;-71
2021/08/02 08:51:44;;;;;;;1.90;1.40;;;;;;;30.00;33.40;97931.25;5021668;28;20290;-71
2021/08/02 08:54:14;;;;;;;2.37;1.20;;;;;;;31.02;31.71;97933.59;5019342;28;20240;-70
2021/08/02 08:56:42;;;;;;;1.52;1.10;;;;;;;30.07;32.77;97935.13;5020855;28;20218;-74
2021/08/02 08:59:13;;;;;;;1.17;1.00;;;;;;;29.85;33.47;97938.06;5030080;28;20559;-74
2021/08/02 09:01:45;;;;;;;1.60;1.10;;;;;;;30.06;33.20;97930.72;5021025;28;20249;-75
2021/08/02 09:04:13;;;;;;;2.00;0.97;;;;;;;29.69;32.82;97931.47;5014901;28;20230;-72
2021/08/02 09:06:47;;;;;;;2.67;0.97;;;;;;;30.05;31.75;97936.59;5016907;28;20206;-71
2021/08/02 09:09:25;;;;;;;1.40;1.10;;;;;;;27.71;37.02;97918.53;5020420;28;20213;-74
2021/08/02 09:12:05;;;;;;;3.17;1.10;;;;;;;29.22;35.13;97913.19;5020093;28;20201;-71
2021/08/02 09:14:34;;;;;;;1.93;1.10;;;;;;;28.52;37.12;97912.53;5026988;28;20230;-72
2021/08/02 09:17:03;;;;;;;2.90;1.03;;;;;;;30.27;32.98;97917.91;5016940;28;20226;-75
2021/08/02 09:19:41;;;;;;;1.67;1.03;;;;;;;29.55;33.17;97922.56;5012025;28;20252;-74
2021/08/02 09:22:08;;;;;;;2.78;1.33;;;;;;;29.29;33.49;97920.94;5022974;28;20322;-74
2021/08/02 09:24:36;;;;;;;0.97;0.83;;;;;;;29.00;34.51;97918.81;5011876;28;20233;-72
2021/08/02 09:27:04;;;;;;;2.13;1.10;;;;;;;28.86;34.44;97920.88;5013370;28;20220;-75
2021/08/02 09:29:32;;;;;;;2.60;1.00;;;;;;;28.00;36.01;97912.59;5017509;28;20210;-75
2021/08/02 09:32:08;;;;;;;2.30;1.10;;;;;;;29.10;34.67;97906.69;5016787;28;20677;-76
2021/08/02 09:34:46;;;;;;;4.17;1.20;;;;;;;29.55;34.13;97902.53;5026304;28;20629;-77
2021/08/02 09:37:21;;;;;;;2.17;1.03;;;;;;;30.34;33.14;97889.84;5013062;28;20627;-73
2021/08/02 09:39:49;;;;;;;2.13;1.00;;;;;;;31.27;31.75;97892.06;5012925;28;20214;-72
2021/08/02 09:42:17;;;;;;;1.80;0.98;;;;;;;30.82;31.77;97907.59;5019512;28;20277;-71
2021/08/02 09:44:44;;;;;;;2.47;1.17;;;;;;;31.00;31.44;97898.09;5024119;28;20214;-72
2021/08/02 09:47:13;;;;;;;1.58;1.27;;;;;;;30.38;33.60;97896.31;5025857;28;20571;-73
2021/08/02 09:49:47;;;;;;;4.45;1.20;;;;;;;30.63;31.86;97890.69;5010039;28;20592;-73
2021/08/02 09:52:15;;;;;;;3.38;1.20;;;;;;;31.25;30.69;97896.28;5021193;28;20204;-73
2021/08/02 09:54:42;;;;;;;2.38;1.38;;;;;;;31.21;30.86;97893.41;5022799;28;20198;-72
2021/08/02 09:57:10;;;;;;;0.93;0.82;;;;;;;29.89;32.80;97888.72;5021686;28;20250;-73
2021/08/02 09:59:40;;;;;;;1.85;1.17;;;;;;;31.18;31.45;97887.72;5019998;28;20210;-73
2021/08/02 10:02:08;;;;;;;2.60;1.38;;;;;;;29.27;33.63;97891.03;5017886;28;20242;-72
2021/08/02 10:04:37;;;;;;;1.95;1.10;;;;;;;30.08;32.94;97889.94;5014480;28;20218;-72
2021/08/02 10:07:09;;;;;;;1.95;1.10;;;;;;;29.41;32.37;97902.66;5020230;28;20689;-74
2021/08/02 10:09:38;;;;;;;3.58;1.77;;;;;;;29.43;48.54;97878.38;5010974;28;20208;-72
2021/08/02 10:12:06;;;;;;;5.87;2.10;;;;;;;28.26;54.84;97861.38;5027895;28;20564;-77
2021/08/02 10:14:34;;;;;;;4.40;1.57;;;;;;;27.81;57.03;97852.47;5013069;28;20727;-76
2021/08/02 10:17:05;;;;;;;2.23;1.33;;;;;;;27.41;55.63;97848.00;5019643;28;20215;-73
2021/08/02 10:19:40;;;;;;;3.07;1.63;;;;;;;28.01;57.87;97843.69;5022262;28;20402;-71
2021/08/02 10:22:07;;;;;;;3.10;1.40;;;;;;;28.12;53.55;97846.97;5018752;28;20262;-70
2021/08/02 10:24:46;;;;;;;2.60;1.50;;;;;;;27.93;55.99;97838.97;5014260;28;20234;-70
2021/08/02 10:27:24;;;;;;;3.47;1.40;;;;;;;28.15;56.05;97836.16;5014023;28;20217;-73
2021/08/02 10:29:51;;;;;;;1.77;1.37;;;;;;;28.01;50.48;97851.94;5023180;28;20202;-71
2021/08/02 10:32:22;;;;;;;3.60;1.70;;;;;;;27.63;55.20;97839.78;5009586;28;20203;-73
2021/08/02 10:34:54;;;;;;;1.60;1.17;;;;;;;27.27;48.95;97852.75;5012465;28;20213;-73
2021/08/02 10:37:32;;;;;;;3.13;1.00;;;;;;;26.50;48.16;97862.16;5022062;28;20203;-72
2021/08/02 10:40:05;;;;;;;1.20;1.10;;;;;;;27.01;50.89;97848.19;5010614;28;20660;-74
2021/08/02 10:42:32;;;;;;;2.10;1.13;;;;;;;27.18;48.59;97851.06;5010423;28;20219;-74
2021/08/02 10:45:01;;;;;;;2.13;1.40;;;;;;;27.97;51.65;97859.16;5022676;28;20213;-77
2021/08/02 10:47:38;;;;;;;2.33;1.57;;;;;;;26.87;53.76;97880.28;5014304;28;20217;-72
2021/08/02 10:50:08;;;;;;;1.77;1.17;;;;;;;25.62;61.27;97867.16;5011319;28;20663;-72
2021/08/02 10:52:36;;;;;;;2.13;1.20;;;;;;;25.09;63.41;97870.50;5011926;28;20234;-72
2021/08/02 10:55:14;;;;;;;2.87;1.20;;;;;;;24.24;74.84;97852.56;5015064;28;20209;-72
2021/08/02 10:57:42;;;;;;;4.27;1.50;;;;;;;23.78;75.40;97874.06;5010051;28;20214;-74
2021/08/02 11:00:19;;;;;;;5.10;1.47;;;;;;;23.69;100.00;97892.13;5022026;28;20336;-75
2021/08/02 11:02:50;;;;;;;2.70;1.37;;;;;;;23.07;91.42;97894.81;5020682;28;20254;-71
2021/08/02 11:05:19;;;;;;;4.80;1.57;;;;;;;23.27;94.96;97893.88;5016402;28;20204;-71
2021/08/02 11:07:47;;;;;;;3.30;1.47;;;;;;;23.86;92.02;97906.13;5014971;28;20207;-71
2021/08/02 11:10:15;;;;;;;2.70;1.10;;;;;;;23.68;90.06;97900.56;5023640;28;20564;-71
2021/08/02 11:12:44;;;;;;;4.50;1.50;;;;;;;23.49;92.33;97889.59;5022028;28;20219;-71
2021/08/02 11:15:12;;;;;;;4.03;1.80;;;;;;;24.52;82.10;97884.41;5010288;28;20683;-70
2021/08/02 11:17:51;;;;;;;5.50;1.50;;;;;;;24.64;82.65;97882.91;5011426;28;20274;-71
2021/08/02 11:20:20;;;;;;;2.77;1.40;;;;;;;25.70;80.87;97877.38;5018342;28;20207;-72
2021/08/02 11:22:51;;;;;;;3.20;1.83;;;;;;;24.56;84.11;97869.03;5022094;28;20580;-72
2021/08/02 11:25:26;;;;;;;3.50;1.40;;;;;;;25.45;83.07;97874.28;5023807;28;20581;-72
2021/08/02 11:27:55;;;;;;;4.10;1.60;;;;;;;26.14;78.38;97869.47;5018439;28;20214;-72
2021/08/02 11:30:23;;;;;;;2.63;1.10;;;;;;;26.34;69.66;97879.19;5016224;28;20472;-71
2021/08/02 11:32:51;;;;;;;3.90;1.40;;;;;;;27.24;68.81;97883.53;5011338;28;20586;-71
2021/08/02 11:35:20;;;;;;;5.83;1.20;;;;;;;27.24;66.66;97890.94;5010521;28;20211;-73
2021/08/02 11:37:51;;;;;;;4.47;1.33;;;;;;;27.04;66.59;97896.84;5021344;28;20202;-71
2021/08/02 11:40:19;;;;;;;1.80;1.30;;;;;;;25.78;73.97;97901.31;5022869;28;20203;-71
2021/08/02 11:42:51;;;;;;;2.83;1.10;;;;;;;25.44;79.35;97905.47;5023064;28;20233;-70
2021/08/02 11:45:19;;;;;;;3.37;1.30;;;;;;;24.15;81.60;97903.38;5023509;28;20213;-70